Time;durP1;ratioP1;P1;durP2;ratioP2;P2;SDS_P1;SDS_P2;PMS_P1;PMS_P2;Temp;Humidity;BMP_temperature;BMP_pressure;BME280_temperature;BME280_humidity;BME280_pressure;Samples;Min_cycle;Max_cycle;Signal;HPM_P1;HPM_P2
2022/08/23 00:01:58;;;;;;;13.00;9.95;;;16.50;99.90;;;;;;5052608;28;20343;-87
2022/08/23 00:04:27;;;;;;;16.13;11.63;;;16.50;99.90;;;;;;5014753;28;20054;-86
2022/08/23 00:06:54;;;;;;;15.50;9.55;;;16.60;99.90;;;;;;5010564;28;20052;-87
2022/08/23 00:09:22;;;;;;;5.38;4.75;;;16.60;99.90;;;;;;5031996;28;20194;-88
2022/08/23 00:11:50;;;;;;;8.90;5.25;;;16.40;99.90;;;;;;5030991;28;20033;-87
2022/08/23 00:14:29;;;;;;;6.57;5.63;;;16.20;99.90;;;;;;5011941;28;20048;-88
2022/08/23 00:16:56;;;;;;;9.82;7.18;;;16.10;99.90;;;;;;5045109;28;20137;-88
2022/08/23 00:19:23;;;;;;;12.68;7.95;;;16.00;99.90;;;;;;5044576;28;20044;-88
2022/08/23 00:21:51;;;;;;;11.40;9.38;;;16.10;99.90;;;;;;5030863;28;20048;-88
2022/08/23 00:24:18;;;;;;;11.45;8.98;;;16.10;99.90;;;;;;5028474;28;20190;-88
2022/08/23 00:27:06;;;;;;;8.73;7.50;;;16.10;99.90;;;;;;5040446;28;20171;-87
2022/08/23 00:29:41;;;;;;;11.98;7.43;;;16.10;99.90;;;;;;5047989;28;20435;-88
2022/08/23 00:32:09;;;;;;;12.30;8.73;;;16.10;99.90;;;;;;5037209;28;20755;-86
2022/08/23 00:34:36;;;;;;;17.00;9.25;;;16.20;99.90;;;;;;5036040;28;20565;-88
2022/08/23 00:37:03;;;;;;;10.45;8.20;;;16.20;99.90;;;;;;5012754;28;20484;-88
2022/08/23 00:39:29;;;;;;;12.63;8.95;;;16.10;99.90;;;;;;5025715;28;20041;-88
2022/08/23 00:41:58;;;;;;;13.52;8.98;;;16.10;99.90;;;;;;5011946;28;20558;-88
2022/08/23 00:50:06;;;;;;;11.95;8.10;;;16.10;99.90;;;;;;5030957;28;20147;-88
2022/08/23 00:52:56;;;;;;;13.85;8.35;;;16.10;99.90;;;;;;5010251;28;20041;-87
2022/08/23 00:55:23;;;;;;;7.63;5.63;;;16.10;99.90;;;;;;5023211;28;20370;-86
2022/08/23 00:57:50;;;;;;;6.47;4.22;;;15.70;99.90;;;;;;5042649;28;20048;-86
2022/08/23 01:00:16;;;;;;;9.75;5.95;;;15.70;99.90;;;;;;5004857;28;20046;-86
2022/08/23 01:02:44;;;;;;;12.15;7.40;;;15.70;99.90;;;;;;5030042;28;20502;-86
2022/08/23 01:05:12;;;;;;;10.75;7.40;;;15.70;99.90;;;;;;5026754;28;20048;-85
2022/08/23 01:07:49;;;;;;;10.52;7.10;;;15.70;99.90;;;;;;5027003;28;20049;-86
2022/08/23 01:10:25;;;;;;;9.18;7.20;;;15.70;99.90;;;;;;5041957;28;20088;-86
2022/08/23 01:13:02;;;;;;;10.57;9.20;;;15.70;99.90;;;;;;5028030;28;20562;-86
2022/08/23 01:15:40;;;;;;;7.45;5.45;;;15.70;99.90;;;;;;5036586;28;20299;-86
2022/08/23 01:18:08;;;;;;;8.30;5.30;;;15.60;99.90;;;;;;5019500;28;20494;-85
2022/08/23 01:20:41;;;;;;;12.75;3.33;;;15.50;99.90;;;;;;5033169;28;20575;-85
2022/08/23 01:23:25;;;;;;;22.23;4.07;;;15.40;99.90;;;;;;5049754;28;20053;-86
2022/08/23 01:25:51;;;;;;;5.47;4.63;;;15.40;99.90;;;;;;5033827;28;20117;-85
2022/08/23 01:28:17;;;;;;;11.30;7.03;;;15.30;99.90;;;;;;5030781;28;20120;-86
2022/08/23 01:30:45;;;;;;;5.00;4.10;;;15.40;99.90;;;;;;5033474;28;20041;-85
2022/08/23 01:33:11;;;;;;;5.50;4.60;;;15.20;99.90;;;;;;5031727;28;20041;-86
2022/08/23 01:35:43;;;;;;;8.23;6.28;;;15.00;99.90;;;;;;5018575;28;20527;-86
2022/08/23 01:38:10;;;;;;;10.68;7.38;;;15.10;99.90;;;;;;5030670;28;20033;-85
2022/08/23 01:40:37;;;;;;;9.38;8.10;;;15.20;99.90;;;;;;5029390;28;20071;-86
2022/08/23 01:43:04;;;;;;;11.52;8.23;;;15.20;99.90;;;;;;5029798;28;20037;-86
2022/08/23 01:45:30;;;;;;;9.60;7.40;;;15.30;99.90;;;;;;5042635;28;20116;-86
2022/08/23 01:47:56;;;;;;;9.10;6.22;;;15.20;99.90;;;;;;5030048;28;20061;-86
2022/08/23 01:50:23;;;;;;;9.75;7.65;;;15.20;99.90;;;;;;5048820;28;20033;-86
2022/08/23 01:52:49;;;;;;;8.30;6.65;;;15.30;99.90;;;;;;5032884;28;20116;-87
2022/08/23 01:55:15;;;;;;;8.27;6.38;;;15.30;99.90;;;;;;5031410;28;20041;-86
2022/08/23 01:57:43;;;;;;;9.27;7.40;;;15.30;99.90;;;;;;5032318;28;20041;-86
2022/08/23 02:00:09;;;;;;;9.02;7.00;;;15.30;99.90;;;;;;5027240;28;21663;-86
2022/08/23 02:02:36;;;;;;;8.23;7.22;;;15.40;99.90;;;;;;5031354;28;20076;-86
2022/08/23 02:05:07;;;;;;;9.32;7.60;;;15.40;99.90;;;;;;5048328;28;20488;-85
2022/08/23 02:07:33;;;;;;;9.40;8.20;;;15.40;99.90;;;;;;5038462;28;20033;-86
2022/08/23 02:09:59;;;;;;;9.18;7.28;;;15.40;99.90;;;;;;5013378;28;20040;-86
2022/08/23 02:12:24;;;;;;;11.68;8.90;;;15.30;99.90;;;;;;5026539;28;20032;-86
2022/08/23 02:14:50;;;;;;;9.95;8.32;;;15.40;99.90;;;;;;5026990;28;20050;-85
2022/08/23 02:17:17;;;;;;;10.75;8.23;;;15.40;99.90;;;;;;5032568;28;20064;-86
2022/08/23 02:19:43;;;;;;;9.15;8.13;;;15.30;99.90;;;;;;5014986;28;20053;-86
2022/08/23 02:22:09;;;;;;;8.82;7.45;;;15.30;99.90;;;;;;5027029;28;20033;-85
2022/08/23 02:24:40;;;;;;;16.65;12.02;;;15.30;99.90;;;;;;5012688;28;20042;-86
2022/08/23 02:27:06;;;;;;;11.52;8.85;;;15.30;99.90;;;;;;5054236;28;20429;-86
2022/08/23 02:29:34;;;;;;;13.48;9.75;;;15.30;99.90;;;;;;5014085;28;20927;-86
2022/08/23 02:32:02;;;;;;;8.07;6.35;;;15.40;99.90;;;;;;5031464;28;20037;-86
2022/08/23 02:34:30;;;;;;;391.05;20.85;;;15.30;99.90;;;;;;5041914;28;20120;-86
2022/08/23 02:36:57;;;;;;;117.32;8.93;;;15.10;99.90;;;;;;5030052;28;20037;-85
2022/08/23 02:39:23;;;;;;;9.20;6.72;;;15.00;99.90;;;;;;5018078;28;20164;-85
2022/08/23 02:41:49;;;;;;;10.57;9.15;;;15.00;99.90;;;;;;5028753;28;20053;-86
2022/08/23 02:44:15;;;;;;;13.55;8.40;;;15.10;99.90;;;;;;5017902;28;20484;-86
2022/08/23 02:46:41;;;;;;;7.78;6.10;;;15.10;99.90;;;;;;5013232;28;20037;-86
2022/08/23 02:49:08;;;;;;;9.48;7.22;;;15.10;99.90;;;;;;5048404;28;20044;-86
2022/08/23 02:51:34;;;;;;;10.02;8.25;;;15.00;99.90;;;;;;5046012;28;20037;-86
2022/08/23 02:54:03;;;;;;;13.98;9.82;;;15.20;99.90;;;;;;5023649;28;20163;-85
2022/08/23 02:56:29;;;;;;;14.80;9.55;;;15.10;99.90;;;;;;5032031;28;20133;-86
2022/08/23 02:58:55;;;;;;;10.43;8.52;;;15.10;99.90;;;;;;5009786;28;20040;-85
2022/08/23 03:01:24;;;;;;;7.80;7.00;;;15.10;99.90;;;;;;5036672;28;20045;-86
2022/08/23 03:03:50;;;;;;;10.73;8.65;;;15.00;99.90;;;;;;5024406;28;20045;-86
2022/08/23 03:06:18;;;;;;;9.02;8.13;;;15.10;99.90;;;;;;5012280;28;20048;-86
2022/08/23 03:08:45;;;;;;;6.75;6.15;;;15.00;99.90;;;;;;5016974;28;20460;-86
2022/08/23 03:11:16;;;;;;;372.33;17.27;;;15.00;99.90;;;;;;5034023;28;20037;-85
2022/08/23 03:13:44;;;;;;;613.92;29.33;;;14.70;99.90;;;;;;5030411;28;20353;-86
2022/08/23 03:16:11;;;;;;;373.90;17.55;;;14.60;99.90;;;;;;5036185;28;20037;-86
2022/08/23 03:18:38;;;;;;;6.38;4.93;;;14.70;99.90;;;;;;5050723;28;20037;-85
2022/08/23 03:21:05;;;;;;;6.07;5.47;;;14.70;99.90;;;;;;5031679;28;20148;-86
2022/08/23 03:23:31;;;;;;;12.43;8.50;;;14.80;99.90;;;;;;5031945;28;20113;-85
2022/08/23 03:25:58;;;;;;;9.05;7.55;;;14.90;99.90;;;;;;5026356;28;20124;-85
2022/08/23 03:28:25;;;;;;;10.15;8.40;;;14.70;99.90;;;;;;5036137;28;20428;-86
2022/08/23 03:30:51;;;;;;;7.47;6.05;;;14.90;99.90;;;;;;5009412;28;20046;-86
2022/08/23 03:33:17;;;;;;;7.95;6.70;;;14.90;99.90;;;;;;5008991;28;20044;-86
2022/08/23 03:35:43;;;;;;;9.52;7.95;;;14.90;99.90;;;;;;5008238;28;20540;-86
2022/08/23 03:38:09;;;;;;;9.25;7.95;;;14.80;99.90;;;;;;5027947;28;20445;-85
2022/08/23 03:40:35;;;;;;;10.00;8.15;;;14.80;99.90;;;;;;5034917;28;20091;-85
2022/08/23 03:43:01;;;;;;;10.52;7.70;;;14.80;99.90;;;;;;5010885;28;20099;-86
2022/08/23 03:45:27;;;;;;;10.95;8.48;;;14.80;99.90;;;;;;5032282;28;20681;-85
2022/08/23 03:47:57;;;;;;;11.93;8.90;;;14.90;99.90;;;;;;5026333;28;20154;-86
2022/08/23 03:50:23;;;;;;;13.40;10.60;;;14.80;99.90;;;;;;5027360;28;20122;-86
2022/08/23 03:52:49;;;;;;;16.35;11.40;;;14.90;99.90;;;;;;5030739;28;20124;-86
2022/08/23 03:55:16;;;;;;;13.98;10.43;;;15.00;99.90;;;;;;5053132;28;20057;-85
2022/08/23 03:57:42;;;;;;;14.30;11.43;;;14.90;99.90;;;;;;5012079;28;20408;-86
2022/08/23 04:00:10;;;;;;;35.88;9.73;;;14.90;99.90;;;;;;5012566;28;20038;-86
2022/08/23 04:02:36;;;;;;;4.75;3.80;;;14.90;99.90;;;;;;5010422;28;20091;-86
2022/08/23 04:05:02;;;;;;;11.65;5.50;;;14.90;99.90;;;;;;5031049;28;20332;-86
2022/08/23 04:07:28;;;;;;;73.93;14.40;;;14.80;99.90;;;;;;5010024;28;20472;-85
2022/08/23 04:09:54;;;;;;;15.50;11.90;;;14.90;99.90;;;;;;5053259;28;20060;-86
2022/08/23 04:12:21;;;;;;;31.65;16.73;;;14.80;99.90;;;;;;5027816;28;20116;-86
2022/08/23 04:14:46;;;;;;;18.98;15.85;;;14.90;99.90;;;;;;5024591;28;20096;-86
2022/08/23 04:17:16;;;;;;;22.77;16.13;;;14.90;99.90;;;;;;5025231;28;20050;-86
2022/08/23 04:19:42;;;;;;;15.32;12.35;;;14.90;99.90;;;;;;5035021;28;20091;-85
2022/08/23 04:22:13;;;;;;;15.23;13.57;;;15.00;99.90;;;;;;5028378;28;20049;-86
2022/08/23 04:24:39;;;;;;;13.88;12.30;;;15.00;99.90;;;;;;5056705;28;20527;-86
2022/08/23 04:27:05;;;;;;;14.18;10.60;;;14.90;99.90;;;;;;5044490;28;20046;-86
2022/08/23 04:29:31;;;;;;;24.77;16.48;;;14.90;99.90;;;;;;5011005;28;20044;-86
2022/08/23 04:31:56;;;;;;;21.50;16.48;;;15.00;99.90;;;;;;5026211;28;20037;-86
2022/08/23 04:34:22;;;;;;;18.65;14.68;;;15.00;99.90;;;;;;5034247;28;20037;-85
2022/08/23 04:36:48;;;;;;;20.27;15.85;;;15.00;99.90;;;;;;5030221;28;20075;-86
2022/08/23 04:39:14;;;;;;;17.85;14.38;;;15.00;99.90;;;;;;5007123;28;20482;-86
2022/08/23 04:44:24;;;;;;;11.32;9.30;;;14.90;99.90;;;;;;5049957;28;20044;-86
2022/08/23 04:46:50;;;;;;;16.25;13.18;;;14.90;99.90;;;;;;5010488;28;20045;-86
2022/08/23 04:49:17;;;;;;;14.27;12.30;;;14.90;99.90;;;;;;5011101;28;20033;-85
2022/08/23 04:51:43;;;;;;;16.90;12.82;;;15.10;99.90;;;;;;5058050;28;20469;-86
2022/08/23 04:54:08;;;;;;;25.60;15.50;;;15.10;99.90;;;;;;5010882;28;20090;-85
2022/08/23 04:56:34;;;;;;;19.65;15.70;;;15.10;99.90;;;;;;5059852;28;20029;-86
2022/08/23 04:59:00;;;;;;;19.88;14.45;;;15.10;99.90;;;;;;5051201;28;20079;-86
2022/08/23 05:01:27;;;;;;;19.55;15.98;;;15.20;99.90;;;;;;5061304;28;20306;-86
2022/08/23 05:03:54;;;;;;;16.08;14.05;;;15.20;99.90;;;;;;5033036;28;20370;-86
2022/08/23 05:06:20;;;;;;;20.50;16.33;;;15.20;99.90;;;;;;5063219;28;20049;-86
2022/08/23 05:08:46;;;;;;;19.90;15.02;;;15.30;99.90;;;;;;5054745;28;20559;-86
2022/08/23 05:11:12;;;;;;;18.83;14.52;;;15.30;99.90;;;;;;5017813;28;20041;-86
2022/08/23 05:13:38;;;;;;;10.57;8.85;;;15.30;99.90;;;;;;5041701;28;20074;-86
2022/08/23 05:16:05;;;;;;;17.58;10.25;;;15.20;99.90;;;;;;5030977;28;20034;-85
2022/08/23 05:18:32;;;;;;;53.22;11.15;;;15.30;99.90;;;;;;5046229;28;20112;-86
2022/08/23 05:20:59;;;;;;;34.78;16.45;;;15.40;99.90;;;;;;5043735;28;20400;-86
2022/08/23 05:23:25;;;;;;;21.30;16.25;;;15.50;99.90;;;;;;5056947;28;20046;-86
2022/08/23 05:25:55;;;;;;;17.10;14.98;;;15.60;99.90;;;;;;5033191;28;20049;-85
2022/08/23 05:28:22;;;;;;;16.23;14.13;;;15.60;99.90;;;;;;5016111;28;20080;-86
2022/08/23 05:30:58;;;;;;;14.90;13.35;;;15.70;99.90;;;;;;5032071;28;20489;-86
2022/08/23 05:33:24;;;;;;;21.90;14.95;;;15.70;99.90;;;;;;5037884;28;20052;-85
2022/08/23 05:35:51;;;;;;;17.98;15.05;;;15.80;99.90;;;;;;5031505;28;20191;-85
2022/08/23 05:38:17;;;;;;;18.77;14.85;;;15.90;99.90;;;;;;5060108;28;20075;-86
2022/08/23 05:40:43;;;;;;;21.38;15.00;;;15.90;99.90;;;;;;5032355;28;20041;-86
2022/08/23 05:43:09;;;;;;;20.73;16.45;;;15.80;99.90;;;;;;5037715;28;20176;-86
2022/08/23 05:45:35;;;;;;;20.63;16.60;;;15.90;99.90;;;;;;5063940;28;20048;-86
2022/08/23 05:48:01;;;;;;;23.27;19.17;;;15.90;99.90;;;;;;5015225;28;20034;-86
2022/08/23 05:50:26;;;;;;;27.17;20.52;;;16.00;99.90;;;;;;5017128;28;20468;-87
2022/08/23 05:52:52;;;;;;;26.10;20.38;;;16.20;99.90;;;;;;5034095;28;20120;-86
2022/08/23 05:55:18;;;;;;;29.90;22.63;;;16.40;99.90;;;;;;5055920;28;20499;-86
2022/08/23 05:57:46;;;;;;;26.17;21.40;;;16.60;99.90;;;;;;5048150;28;20098;-86
2022/08/23 06:00:14;;;;;;;26.42;20.90;;;16.70;99.90;;;;;;5046046;28;20448;-85
2022/08/23 06:02:40;;;;;;;24.48;20.58;;;16.80;99.90;;;;;;5010885;28;20049;-86
2022/08/23 06:05:07;;;;;;;23.60;19.33;;;16.90;99.90;;;;;;5046438;28;20075;-86
2022/08/23 06:07:48;;;;;;;25.67;21.85;;;17.10;99.90;;;;;;5078657;27;20429;-84
2022/08/23 06:10:14;;;;;;;23.58;19.73;;;17.30;99.90;;;;;;5038889;28;20570;-84
2022/08/23 06:12:42;;;;;;;23.40;19.70;;;17.30;99.90;;;;;;5051578;28;20058;-84
2022/08/23 06:15:08;;;;;;;22.58;19.70;;;17.40;99.90;;;;;;5054197;28;20174;-85
2022/08/23 06:17:34;;;;;;;20.95;18.60;;;17.50;99.90;;;;;;5076541;28;20492;-84
2022/08/23 06:19:59;;;;;;;21.95;19.70;;;17.50;99.90;;;;;;5054843;28;20028;-84
2022/08/23 06:22:25;;;;;;;23.23;19.42;;;17.60;99.90;;;;;;5075186;28;20051;-84
2022/08/23 06:24:51;;;;;;;20.63;18.42;;;17.60;99.90;;;;;;5041265;28;20136;-84
2022/08/23 06:27:16;;;;;;;28.63;18.73;;;17.70;99.90;;;;;;5062338;28;20032;-84
2022/08/23 06:29:43;;;;;;;21.38;19.00;;;17.90;99.90;;;;;;5065973;28;20281;-85
2022/08/23 06:32:08;;;;;;;19.75;17.75;;;17.90;99.90;;;;;;5060151;28;20218;-86
2022/08/23 06:34:36;;;;;;;19.20;16.90;;;18.00;99.90;;;;;;5071311;28;20517;-87
2022/08/23 06:37:13;;;;;;;19.77;17.88;;;18.10;99.90;;;;;;5047037;28;20489;-86
2022/08/23 06:39:39;;;;;;;19.42;16.80;;;18.20;99.90;;;;;;5045553;28;20052;-86
2022/08/23 06:42:05;;;;;;;19.67;17.65;;;18.30;99.90;;;;;;5071936;28;20487;-86
2022/08/23 06:44:32;;;;;;;20.60;16.85;;;18.50;99.90;;;;;;5065804;28;20565;-86
2022/08/23 06:46:58;;;;;;;16.45;14.65;;;18.50;99.90;;;;;;5033814;28;20436;-86
2022/08/23 06:49:24;;;;;;;16.40;14.65;;;18.60;99.90;;;;;;5071409;28;20040;-86
2022/08/23 06:51:55;;;;;;;15.98;14.30;;;18.60;99.90;;;;;;5048051;28;20055;-86
2022/08/23 06:54:25;;;;;;;16.42;14.00;;;18.80;98.60;;;;;;5064911;28;20044;-86
2022/08/23 06:56:51;;;;;;;15.95;13.60;;;18.90;1.00;;;;;;5071902;28;20116;-86
2022/08/23 06:59:18;;;;;;;14.18;12.77;;;18.90;99.90;;;;;;5080633;28;20055;-85
2022/08/23 07:01:59;;;;;;;17.98;13.52;;;19.00;99.90;;;;;;5054179;28;20052;-87
2022/08/23 07:04:32;;;;;;;13.60;12.25;;;19.10;99.90;;;;;;5034974;28;20045;-87
2022/08/23 07:07:00;;;;;;;14.60;12.02;;;19.10;14.30;;;;;;5049863;28;20131;-86
2022/08/23 07:09:27;;;;;;;15.95;11.38;;;19.20;1.00;;;;;;5093694;27;20475;-86
2022/08/23 07:11:55;;;;;;;19.05;11.68;;;19.30;99.90;;;;;;5052864;28;20060;-86
2022/08/23 07:14:22;;;;;;;11.65;10.27;;;19.40;99.90;;;;;;5072950;28;20106;-86
2022/08/23 07:16:51;;;;;;;17.52;12.02;;;19.60;99.90;;;;;;5060101;28;20215;-86
2022/08/23 07:19:18;;;;;;;12.23;11.02;;;19.60;1.00;;;;;;5040444;28;20051;-86
2022/08/23 07:21:47;;;;;;;11.95;10.20;;;19.70;99.90;;;;;;5055434;28;20452;-85
2022/08/23 07:24:14;;;;;;;11.55;10.35;;;19.70;99.90;;;;;;5059759;28;20099;-86
2022/08/23 07:26:41;;;;;;;12.63;9.52;;;19.80;31.10;;;;;;5039024;28;20053;-85
2022/08/23 07:29:10;;;;;;;10.02;9.02;;;19.90;1.00;;;;;;5050235;28;20158;-86
2022/08/23 07:31:43;;;;;;;9.55;8.70;;;20.10;99.90;;;;;;5054042;28;20052;-86
2022/08/23 07:34:09;;;;;;;9.48;8.23;;;20.30;99.90;;;;;;5027869;28;20068;-86
2022/08/23 07:36:35;;;;;;;14.52;8.13;;;20.40;99.90;;;;;;5039980;28;20493;-86
2022/08/23 07:39:01;;;;;;;10.13;7.88;;;20.50;99.90;;;;;;5069618;28;20473;-86
2022/08/23 07:41:30;;;;;;;8.85;7.55;;;20.50;99.90;;;;;;5049071;28;20048;-86
2022/08/23 07:43:57;;;;;;;8.63;7.10;;;20.70;1.00;;;;;;5077971;28;20049;-85
2022/08/23 07:46:24;;;;;;;9.77;7.05;;;20.80;99.90;;;;;;5051544;28;20045;-86
2022/08/23 07:48:51;;;;;;;8.38;7.38;;;20.90;1.00;;;;;;5031806;28;20574;-86
2022/08/23 07:51:18;;;;;;;12.02;6.88;;;21.00;99.90;;;;;;5051914;28;20470;-86
2022/08/23 07:53:47;;;;;;;8.35;6.47;;;21.10;82.40;;;;;;5035307;28;20456;-86
2022/08/23 07:56:14;;;;;;;7.85;6.55;;;21.20;54.10;;;;;;5055177;28;20400;-85
2022/08/23 07:58:40;;;;;;;7.97;6.00;;;21.30;99.90;;;;;;5032827;28;20339;-86
2022/08/23 08:01:16;;;;;;;12.32;5.80;;;21.50;1.00;;;;;;5032673;28;20037;-86
2022/08/23 08:03:44;;;;;;;8.63;5.55;;;21.60;47.00;;;;;;5057602;28;20243;-86
2022/08/23 08:06:13;;;;;;;6.10;5.22;;;21.70;99.90;;;;;;5043276;28;20523;-86
2022/08/23 08:08:40;;;;;;;7.50;4.75;;;21.70;99.90;;;;;;5033939;28;20040;-86
2022/08/23 08:11:10;;;;;;;8.68;5.25;;;21.90;99.90;;;;;;5024740;28;20125;-86
2022/08/23 08:13:38;;;;;;;6.57;5.25;;;21.90;99.90;;;;;;5049938;28;20048;-86
2022/08/23 08:16:05;;;;;;;7.57;4.60;;;22.00;99.90;;;;;;5046761;28;20037;-87
2022/08/23 08:18:31;;;;;;;6.40;4.50;;;22.20;99.90;;;;;;5048436;28;20124;-87
2022/08/23 08:20:57;;;;;;;8.65;4.85;;;22.10;99.90;;;;;;5055600;28;20128;-86
2022/08/23 08:23:23;;;;;;;8.38;4.65;;;22.00;99.90;;;;;;5056165;28;20040;-86
2022/08/23 08:25:57;;;;;;;6.38;4.40;;;21.90;99.90;;;;;;5048990;28;20037;-86
2022/08/23 08:28:23;;;;;;;6.43;4.33;;;22.10;99.90;;;;;;5062468;28;20113;-85
2022/08/23 08:30:48;;;;;;;5.50;3.67;;;22.40;79.50;;;;;;5038127;28;20532;-84
2022/08/23 08:33:14;;;;;;;5.28;4.07;;;22.50;99.90;;;;;;5018029;28;20029;-85
2022/08/23 08:35:39;;;;;;;6.90;3.70;;;22.50;1.00;;;;;;5034468;28;20467;-85
2022/08/23 08:38:05;;;;;;;7.82;4.20;;;22.60;99.90;;;;;;5029160;28;20033;-84
2022/08/23 08:40:38;;;;;;;7.15;4.40;;;22.80;1.00;;;;;;5027485;28;20040;-85
2022/08/23 08:43:32;;;;;;;6.45;4.18;;;22.90;99.90;;;;;;5057411;28;20413;-84
2022/08/23 08:46:04;;;;;;;6.82;4.40;;;23.30;99.90;;;;;;5040985;28;20130;-83
2022/08/23 08:48:40;;;;;;;6.07;4.30;;;23.40;99.90;;;;;;5052340;28;20193;-84
2022/08/23 08:51:19;;;;;;;6.63;4.22;;;23.70;99.90;;;;;;5053236;28;20415;-84
2022/08/23 08:53:48;;;;;;;7.35;4.20;;;23.80;65.80;;;;;;5050786;28;20625;-84
2022/08/23 08:56:23;;;;;;;6.78;4.35;;;23.80;23.70;;;;;;5029218;28;20497;-85
2022/08/23 08:58:52;;;;;;;7.25;4.13;;;24.20;1.00;;;;;;5022305;28;20041;-85
2022/08/23 09:01:21;;;;;;;5.20;4.00;;;24.20;99.90;;;;;;5066800;28;20094;-84
2022/08/23 09:03:47;;;;;;;6.93;4.10;;;24.40;99.90;;;;;;5037294;28;20475;-83
2022/08/23 09:06:35;;;;;;;11.00;4.63;;;24.50;99.90;;;;;;5052534;28;20569;-84
2022/08/23 09:09:35;;;;;;;9.52;4.00;;;24.50;99.90;;;;;;5040709;28;20037;-83
2022/08/23 09:12:19;;;;;;;7.95;3.92;;;24.70;99.90;;;;;;5068507;28;20614;-84
2022/08/23 09:15:02;;;;;;;8.32;3.80;;;24.90;99.90;;;;;;5036185;28;20399;-84
2022/08/23 09:17:51;;;;;;;5.20;3.95;;;25.00;1.00;;;;;;5020120;28;20037;-84
2022/08/23 09:20:20;;;;;;;6.88;4.00;;;25.30;99.90;;;;;;5049224;28;20041;-84
2022/08/23 09:23:08;;;;;;;7.38;4.20;;;25.30;99.90;;;;;;5022675;28;20044;-84
2022/08/23 09:25:33;;;;;;;8.65;3.55;;;25.70;99.90;;;;;;5034028;28;20055;-84
2022/08/23 09:27:59;;;;;;;4.68;3.42;;;26.00;99.90;;;;;;5068735;28;20040;-84
2022/08/23 09:30:46;;;;;;;4.20;3.20;;;26.20;99.90;;;;;;5026659;28;20126;-84
2022/08/23 09:33:35;;;;;;;4.38;3.25;;;26.30;99.90;;;;;;5049356;28;20033;-84
2022/08/23 09:36:09;;;;;;;4.07;3.30;;;26.60;97.00;;;;;;5024101;28;20503;-84
2022/08/23 09:38:35;;;;;;;6.82;3.50;;;26.50;1.00;;;;;;5048734;28;20044;-84
2022/08/23 09:41:13;;;;;;;6.32;3.38;;;26.80;48.00;;;;;;5018333;28;20046;-84
2022/08/23 09:43:47;;;;;;;6.30;3.50;;;26.70;63.10;;;;;;5069422;28;20046;-84
2022/08/23 09:46:24;;;;;;;5.35;3.22;;;26.80;1.00;;;;;;5035815;28;20124;-84
2022/08/23 09:48:50;;;;;;;6.90;3.60;;;26.90;1.00;;;;;;5052549;28;20537;-84
2022/08/23 09:51:26;;;;;;;5.90;3.50;;;27.00;1.00;;;;;;5030969;28;20170;-84
2022/08/23 09:54:10;;;;;;;5.13;3.50;;;27.00;1.00;;;;;;5076137;28;20174;-83
2022/08/23 09:56:43;;;;;;;5.65;3.40;;;26.90;1.00;;;;;;5032126;28;20048;-84
2022/08/23 09:59:24;;;;;;;7.13;3.58;;;26.70;1.00;;;;;;5034505;28;20045;-83
2022/08/23 10:01:52;;;;;;;4.55;3.38;;;26.70;1.00;;;;;;5049879;28;20043;-84
2022/08/23 10:04:41;;;;;;;6.43;3.25;;;26.80;1.00;;;;;;5056520;28;20548;-84
2022/08/23 10:07:33;;;;;;;6.60;3.47;;;27.00;1.00;;;;;;5061570;28;20049;-84
2022/08/23 10:10:18;;;;;;;4.68;3.53;;;27.30;1.00;;;;;;5023038;28;20049;-84
2022/08/23 10:12:44;;;;;;;5.20;3.03;;;27.50;1.00;;;;;;5031255;28;20123;-83
2022/08/23 10:15:10;;;;;;;6.15;3.30;;;27.40;1.00;;;;;;5034109;28;20047;-84
2022/08/23 10:17:47;;;;;;;6.38;3.38;;;27.50;1.00;;;;;;5068917;28;20112;-84
2022/08/23 10:20:35;;;;;;;8.32;3.33;;;27.50;1.00;;;;;;5060831;28;20500;-84
2022/08/23 10:23:39;;;;;;;4.70;2.90;;;27.80;99.90;;;;;;5048130;28;20032;-84
2022/08/23 10:26:09;;;;;;;5.88;2.92;;;27.80;99.90;;;;;;5041593;28;20328;-84
2022/08/23 10:31:55;;;;;;;5.60;2.97;;;27.70;99.90;;;;;;5068311;28;20044;-84
2022/08/23 10:34:56;;;;;;;5.07;3.13;;;28.00;99.90;;;;;;5028889;28;20048;-85
2022/08/23 10:37:55;;;;;;;6.10;2.90;;;27.90;99.90;;;;;;5040613;28;20052;-85
2022/08/23 10:40:27;;;;;;;3.28;2.97;;;27.90;99.90;;;;;;5040210;28;20037;-85
2022/08/23 10:43:25;;;;;;;6.88;3.10;;;27.90;99.90;;;;;;5028117;28;20902;-85
2022/08/23 10:45:52;;;;;;;3.92;2.85;;;27.80;99.90;;;;;;5068796;28;20052;-85
2022/08/23 10:48:27;;;;;;;4.22;2.95;;;28.10;99.90;;;;;;5040815;28;20046;-84
2022/08/23 10:51:10;;;;;;;6.25;2.80;;;28.30;99.90;;;;;;5037903;28;20238;-85
2022/08/23 10:53:45;;;;;;;3.78;2.70;;;28.50;99.90;;;;;;5050935;28;20178;-84
2022/08/23 10:56:17;;;;;;;4.72;2.90;;;28.70;99.90;;;;;;5089181;28;20037;-84
2022/08/23 10:58:47;;;;;;;4.68;2.50;;;28.60;99.90;;;;;;5061939;28;20048;-85
2022/08/23 11:01:20;;;;;;;4.97;3.05;;;28.50;99.90;;;;;;5024436;28;20048;-85
2022/08/23 11:03:51;;;;;;;4.80;2.60;;;28.80;99.90;;;;;;5016664;28;20049;-85
2022/08/23 11:06:35;;;;;;;6.65;2.60;;;28.60;99.90;;;;;;5019829;28;20083;-86
2022/08/23 11:09:00;;;;;;;5.05;2.70;;;29.10;99.90;;;;;;5059688;28;20387;-87
2022/08/23 11:11:49;;;;;;;4.45;3.10;;;28.90;99.90;;;;;;5028382;28;20052;-86
2022/08/23 11:14:35;;;;;;;6.82;2.80;;;29.30;99.90;;;;;;5031849;28;20103;-86
2022/08/23 11:17:10;;;;;;;5.90;2.55;;;29.70;99.90;;;;;;5057579;28;20581;-86
2022/08/23 11:20:04;;;;;;;3.80;2.60;;;29.40;99.90;;;;;;5011887;28;20052;-86
2022/08/23 11:22:33;;;;;;;4.65;2.58;;;29.50;99.90;;;;;;5048732;28;20053;-86
2022/08/23 11:25:01;;;;;;;5.32;2.78;;;29.80;99.90;;;;;;5021984;28;20529;-85
2022/08/23 11:27:39;;;;;;;7.38;3.35;;;29.80;99.90;;;;;;5073584;28;20426;-85
2022/08/23 11:30:35;;;;;;;4.70;2.90;;;30.10;99.90;;;;;;5058218;28;20033;-85
2022/08/23 11:33:32;;;;;;;4.20;2.80;;;30.10;99.90;;;;;;5066328;28;20420;-85
2022/08/23 11:36:23;;;;;;;3.47;2.45;;;29.80;99.90;;;;;;5051720;28;20143;-86
2022/08/23 11:38:49;;;;;;;3.53;2.35;;;30.10;99.90;;;;;;5052280;28;20048;-85
2022/08/23 11:41:52;;;;;;;5.95;2.60;;;30.10;99.90;;;;;;5050755;28;20041;-86
2022/08/23 11:44:41;;;;;;;3.83;2.40;;;30.00;99.90;;;;;;5044525;28;20041;-86
2022/08/23 11:47:10;;;;;;;3.75;2.70;;;30.10;99.90;;;;;;5013249;28;20548;-85
2022/08/23 11:49:57;;;;;;;4.35;2.65;;;30.30;99.90;;;;;;5019865;28;20041;-84
2022/08/23 11:52:32;;;;;;;6.93;2.72;;;30.10;99.90;;;;;;5020727;28;20067;-85
2022/08/23 11:55:20;;;;;;;5.03;2.67;;;30.30;98.10;;;;;;5051316;28;20072;-85
2022/08/23 11:58:14;;;;;;;5.78;2.38;;;30.40;99.90;;;;;;5068873;28;20566;-84
2022/08/23 12:01:01;;;;;;;3.25;2.30;;;30.90;96.50;;;;;;5056966;28;20056;-85
2022/08/23 12:03:35;;;;;;;6.28;2.63;;;30.90;92.90;;;;;;5026458;28;20136;-85
2022/08/23 12:06:08;;;;;;;6.47;2.60;;;30.90;79.20;;;;;;5047221;28;20567;-84
2022/08/23 12:09:21;;;;;;;5.05;2.30;;;31.00;92.90;;;;;;5043278;28;20045;-85
2022/08/23 12:11:56;;;;;;;3.92;2.40;;;31.00;71.90;;;;;;4999550;28;20156;-84
2022/08/23 12:14:30;;;;;;;7.32;2.53;;;30.60;50.80;;;;;;5075017;28;20040;-84
2022/08/23 12:17:11;;;;;;;5.32;2.50;;;31.00;69.60;;;;;;5058947;28;20147;-85
2022/08/23 12:19:47;;;;;;;3.97;2.40;;;31.40;68.70;;;;;;5065399;28;20123;-85
2022/08/23 12:22:17;;;;;;;4.25;2.50;;;31.30;47.00;;;;;;5017013;28;20041;-85
2022/08/23 12:24:54;;;;;;;5.53;2.47;;;31.80;54.60;;;;;;5012765;28;20041;-84
2022/08/23 12:27:31;;;;;;;4.07;2.20;;;31.60;52.90;;;;;;5046383;28;20049;-85
2022/08/23 12:30:06;;;;;;;3.58;2.47;;;31.30;28.80;;;;;;5047016;28;20392;-85
2022/08/23 12:33:03;;;;;;;;;;;31.30;15.60;;;;;;5012792;28;20385;-85
2022/08/23 12:35:48;;;;;;;3.92;2.08;;;31.60;27.60;;;;;;5001681;28;19964;-85
2022/08/23 12:38:44;;;;;;;5.60;2.80;;;32.20;26.20;;;;;;5029000;28;20549;-85
2022/08/23 12:41:23;;;;;;;3.35;1.88;;;33.00;33.30;;;;;;5084292;28;20509;-85
2022/08/23 12:43:55;;;;;;;4.30;2.40;;;33.10;18.10;;;;;;5032260;28;20080;-86
2022/08/23 12:46:39;;;;;;;5.95;2.58;;;32.70;1.00;;;;;;5019213;28;20076;-85
2022/08/23 12:49:07;;;;;;;6.03;2.47;;;32.40;1.00;;;;;;5037812;28;20322;-85
2022/08/23 12:52:07;;;;;;;4.85;2.17;;;32.60;12.40;;;;;;5030754;28;20494;-86
2022/08/23 12:54:43;;;;;;;4.75;2.25;;;32.60;1.00;;;;;;4999747;28;20048;-85
2022/08/23 12:57:16;;;;;;;3.95;2.10;;;32.10;1.00;;;;;;5067442;28;20128;-86
2022/08/23 12:59:50;;;;;;;4.75;2.00;;;32.10;1.00;;;;;;5071721;28;20591;-85
2022/08/23 13:02:25;;;;;;;5.57;2.42;;;31.90;1.00;;;;;;5062665;28;20047;-85
2022/08/23 13:04:53;;;;;;;4.97;2.20;;;31.30;1.00;;;;;;5049450;28;20033;-85
2022/08/23 13:07:22;;;;;;;5.72;2.15;;;31.40;1.00;;;;;;5069283;28;20482;-85
2022/08/23 13:09:49;;;;;;;4.32;2.22;;;31.30;1.00;;;;;;5041057;28;20044;-85
2022/08/23 13:12:16;;;;;;;4.70;2.40;;;31.20;1.00;;;;;;5022516;28;20079;-85
2022/08/23 13:14:44;;;;;;;5.88;2.30;;;31.20;1.00;;;;;;5037620;28;20373;-85